sensor_id;sensor_type;location;lat;lon;timestamp;temperature;humidity
10566;DHT22;5331;48.148;16.326;2022-10-15T00:00:24;9.10;1.00
10566;DHT22;5331;48.148;16.326;2022-10-15T00:02:52;9.10;1.00
10566;DHT22;5331;48.148;16.326;2022-10-15T00:05:20;9.10;1.00
10566;DHT22;5331;48.148;16.326;2022-10-15T00:07:47;9.10;1.00
10566;DHT22;5331;48.148;16.326;2022-10-15T00:10:14;9.10;1.00
10566;DHT22;5331;48.148;16.326;2022-10-15T00:12:42;9.10;1.00
10566;DHT22;5331;48.148;16.326;2022-10-15T00:15:10;9.20;1.00
10566;DHT22;5331;48.148;16.326;2022-10-15T00:17:37;9.10;1.00
10566;DHT22;5331;48.148;16.326;2022-10-15T00:20:08;9.10;1.00
10566;DHT22;5331;48.148;16.326;2022-10-15T00:22:36;9.20;1.00
10566;DHT22;5331;48.148;16.326;2022-10-15T00:25:03;9.20;1.00
10566;DHT22;5331;48.148;16.326;2022-10-15T00:27:30;9.20;1.00
10566;DHT22;5331;48.148;16.326;2022-10-15T00:29:57;9.20;1.00
10566;DHT22;5331;48.148;16.326;2022-10-15T00:32:25;9.20;1.00
10566;DHT22;5331;48.148;16.326;2022-10-15T00:34:53;9.30;1.00
10566;DHT22;5331;48.148;16.326;2022-10-15T00:37:21;9.30;1.00
10566;DHT22;5331;48.148;16.326;2022-10-15T00:39:48;9.30;1.00
10566;DHT22;5331;48.148;16.326;2022-10-15T00:42:16;9.30;1.00
10566;DHT22;5331;48.148;16.326;2022-10-15T00:44:52;9.30;1.00
10566;DHT22;5331;48.148;16.326;2022-10-15T00:47:24;9.30;1.00
10566;DHT22;5331;48.148;16.326;2022-10-15T00:49:58;9.30;1.00
10566;DHT22;5331;48.148;16.326;2022-10-15T00:52:31;9.30;1.00
10566;DHT22;5331;48.148;16.326;2022-10-15T00:55:04;9.30;1.00
10566;DHT22;5331;48.148;16.326;2022-10-15T00:57:32;9.30;1.00
10566;DHT22;5331;48.148;16.326;2022-10-15T01:00:04;9.30;1.00
10566;DHT22;5331;48.148;16.326;2022-10-15T01:02:32;9.30;1.00
10566;DHT22;5331;48.148;16.326;2022-10-15T01:04:58;9.30;1.00
10566;DHT22;5331;48.148;16.326;2022-10-15T01:07:27;9.30;1.00
10566;DHT22;5331;48.148;16.326;2022-10-15T01:09:54;9.30;1.00
10566;DHT22;5331;48.148;16.326;2022-10-15T01:12:30;9.30;1.00
10566;DHT22;5331;48.148;16.326;2022-10-15T01:15:04;9.30;1.00
10566;DHT22;5331;48.148;16.326;2022-10-15T01:17:39;9.30;1.00
10566;DHT22;5331;48.148;16.326;2022-10-15T01:20:47;9.20;1.00
10566;DHT22;5331;48.148;16.326;2022-10-15T01:23:42;9.20;1.00
10566;DHT22;5331;48.148;16.326;2022-10-15T01:26:33;9.30;1.00
10566;DHT22;5331;48.148;16.326;2022-10-15T01:29:15;9.30;1.00
10566;DHT22;5331;48.148;16.326;2022-10-15T01:31:51;9.30;1.00
10566;DHT22;5331;48.148;16.326;2022-10-15T01:34:21;9.30;1.00
10566;DHT22;5331;48.148;16.326;2022-10-15T01:36:55;9.40;1.00
10566;DHT22;5331;48.148;16.326;2022-10-15T01:39:28;9.40;1.00
10566;DHT22;5331;48.148;16.326;2022-10-15T01:42:00;9.40;1.00
10566;DHT22;5331;48.148;16.326;2022-10-15T01:44:30;9.40;1.00
10566;DHT22;5331;48.148;16.326;2022-10-15T01:47:03;9.50;1.00
10566;DHT22;5331;48.148;16.326;2022-10-15T01:49:33;9.50;1.00
10566;DHT22;5331;48.148;16.326;2022-10-15T01:52:15;9.50;1.00
10566;DHT22;5331;48.148;16.326;2022-10-15T01:54:45;9.50;1.00
10566;DHT22;5331;48.148;16.326;2022-10-15T01:57:13;9.60;1.00
10566;DHT22;5331;48.148;16.326;2022-10-15T01:59:41;9.60;1.00
10566;DHT22;5331;48.148;16.326;2022-10-15T02:02:10;9.60;1.00
10566;DHT22;5331;48.148;16.326;2022-10-15T02:04:38;9.60;1.00
10566;DHT22;5331;48.148;16.326;2022-10-15T02:07:08;9.60;1.00
10566;DHT22;5331;48.148;16.326;2022-10-15T02:09:44;9.70;1.00
10566;DHT22;5331;48.148;16.326;2022-10-15T02:12:27;9.70;1.00
10566;DHT22;5331;48.148;16.326;2022-10-15T02:15:01;9.70;1.00
10566;DHT22;5331;48.148;16.326;2022-10-15T02:17:34;9.70;1.00
10566;DHT22;5331;48.148;16.326;2022-10-15T02:20:07;9.80;1.00
10566;DHT22;5331;48.148;16.326;2022-10-15T02:22:42;9.80;1.00
10566;DHT22;5331;48.148;16.326;2022-10-15T02:25:14;9.80;1.00
10566;DHT22;5331;48.148;16.326;2022-10-15T02:27:43;9.80;1.00
10566;DHT22;5331;48.148;16.326;2022-10-15T02:30:12;9.80;1.00
10566;DHT22;5331;48.148;16.326;2022-10-15T02:32:42;9.80;1.00
10566;DHT22;5331;48.148;16.326;2022-10-15T02:35:11;9.80;1.00
10566;DHT22;5331;48.148;16.326;2022-10-15T02:37:42;9.80;1.00
10566;DHT22;5331;48.148;16.326;2022-10-15T02:40:10;9.80;1.00
10566;DHT22;5331;48.148;16.326;2022-10-15T02:42:37;9.80;1.00
10566;DHT22;5331;48.148;16.326;2022-10-15T02:45:06;9.90;1.00
10566;DHT22;5331;48.148;16.326;2022-10-15T02:47:33;9.90;1.00
10566;DHT22;5331;48.148;16.326;2022-10-15T02:50:02;9.90;1.00
10566;DHT22;5331;48.148;16.326;2022-10-15T02:52:29;10.00;1.00
10566;DHT22;5331;48.148;16.326;2022-10-15T02:54:56;10.00;1.00
10566;DHT22;5331;48.148;16.326;2022-10-15T02:57:23;10.00;1.00
10566;DHT22;5331;48.148;16.326;2022-10-15T02:59:50;10.00;1.00
10566;DHT22;5331;48.148;16.326;2022-10-15T03:02:16;10.00;1.00
10566;DHT22;5331;48.148;16.326;2022-10-15T03:04:43;9.90;1.00
10566;DHT22;5331;48.148;16.326;2022-10-15T03:07:12;10.00;1.00
10566;DHT22;5331;48.148;16.326;2022-10-15T03:09:39;10.00;1.00
10566;DHT22;5331;48.148;16.326;2022-10-15T03:12:06;10.00;1.00
10566;DHT22;5331;48.148;16.326;2022-10-15T03:14:33;10.00;1.00
10566;DHT22;5331;48.148;16.326;2022-10-15T03:17:00;10.00;1.00
10566;DHT22;5331;48.148;16.326;2022-10-15T03:19:27;10.00;1.00
10566;DHT22;5331;48.148;16.326;2022-10-15T03:21:54;10.00;1.00
10566;DHT22;5331;48.148;16.326;2022-10-15T03:24:22;10.00;1.00
10566;DHT22;5331;48.148;16.326;2022-10-15T03:26:49;10.00;1.00
10566;DHT22;5331;48.148;16.326;2022-10-15T03:29:16;10.00;1.00
10566;DHT22;5331;48.148;16.326;2022-10-15T03:31:43;10.00;1.00
10566;DHT22;5331;48.148;16.326;2022-10-15T03:34:10;10.00;1.00
10566;DHT22;5331;48.148;16.326;2022-10-15T03:36:36;10.00;1.00
10566;DHT22;5331;48.148;16.326;2022-10-15T03:39:03;10.00;1.00
10566;DHT22;5331;48.148;16.326;2022-10-15T03:41:32;10.00;1.00
10566;DHT22;5331;48.148;16.326;2022-10-15T03:44:00;10.00;1.00
10566;DHT22;5331;48.148;16.326;2022-10-15T03:46:27;9.90;1.00
10566;DHT22;5331;48.148;16.326;2022-10-15T03:48:54;9.90;1.00
10566;DHT22;5331;48.148;16.326;2022-10-15T03:51:21;9.90;1.00
10566;DHT22;5331;48.148;16.326;2022-10-15T03:53:48;9.90;1.00
10566;DHT22;5331;48.148;16.326;2022-10-15T03:56:15;9.90;1.00
10566;DHT22;5331;48.148;16.326;2022-10-15T03:58:44;9.90;1.00
10566;DHT22;5331;48.148;16.326;2022-10-15T04:01:15;9.90;1.00
10566;DHT22;5331;48.148;16.326;2022-10-15T04:03:42;9.90;1.00
10566;DHT22;5331;48.148;16.326;2022-10-15T04:06:09;9.90;1.00
10566;DHT22;5331;48.148;16.326;2022-10-15T04:08:36;9.90;1.00
10566;DHT22;5331;48.148;16.326;2022-10-15T04:11:03;9.90;1.00
10566;DHT22;5331;48.148;16.326;2022-10-15T04:13:30;9.90;1.00
10566;DHT22;5331;48.148;16.326;2022-10-15T04:15:58;9.90;1.00
10566;DHT22;5331;48.148;16.326;2022-10-15T04:18:25;10.00;1.00
10566;DHT22;5331;48.148;16.326;2022-10-15T04:20:52;10.00;1.00
10566;DHT22;5331;48.148;16.326;2022-10-15T04:23:19;10.00;1.00
10566;DHT22;5331;48.148;16.326;2022-10-15T04:25:46;10.00;1.00
10566;DHT22;5331;48.148;16.326;2022-10-15T04:28:13;10.00;1.00
10566;DHT22;5331;48.148;16.326;2022-10-15T04:30:40;10.00;1.00
10566;DHT22;5331;48.148;16.326;2022-10-15T04:33:09;10.00;1.00
10566;DHT22;5331;48.148;16.326;2022-10-15T04:35:36;10.00;1.00
10566;DHT22;5331;48.148;16.326;2022-10-15T04:38:02;10.00;1.00
10566;DHT22;5331;48.148;16.326;2022-10-15T04:40:29;10.00;1.00
10566;DHT22;5331;48.148;16.326;2022-10-15T04:42:56;10.10;1.00
10566;DHT22;5331;48.148;16.326;2022-10-15T04:45:23;10.10;1.00
10566;DHT22;5331;48.148;16.326;2022-10-15T04:47:50;10.10;1.00
10566;DHT22;5331;48.148;16.326;2022-10-15T04:50:19;10.20;1.00
10566;DHT22;5331;48.148;16.326;2022-10-15T04:52:48;10.20;1.00
10566;DHT22;5331;48.148;16.326;2022-10-15T04:55:15;10.20;1.00
10566;DHT22;5331;48.148;16.326;2022-10-15T04:57:42;10.20;1.00
10566;DHT22;5331;48.148;16.326;2022-10-15T05:00:10;10.20;1.00
10566;DHT22;5331;48.148;16.326;2022-10-15T05:02:40;10.20;1.00
10566;DHT22;5331;48.148;16.326;2022-10-15T05:05:08;10.30;1.00
10566;DHT22;5331;48.148;16.326;2022-10-15T05:07:36;10.30;1.00
10566;DHT22;5331;48.148;16.326;2022-10-15T05:10:03;10.30;1.00
10566;DHT22;5331;48.148;16.326;2022-10-15T05:12:31;10.30;1.00
10566;DHT22;5331;48.148;16.326;2022-10-15T05:14:57;10.40;1.00
10566;DHT22;5331;48.148;16.326;2022-10-15T05:17:24;10.60;1.00
10566;DHT22;5331;48.148;16.326;2022-10-15T05:19:51;10.60;1.00
10566;DHT22;5331;48.148;16.326;2022-10-15T05:22:18;10.60;1.00
10566;DHT22;5331;48.148;16.326;2022-10-15T05:24:46;10.70;1.00
10566;DHT22;5331;48.148;16.326;2022-10-15T05:27:13;10.70;1.00
10566;DHT22;5331;48.148;16.326;2022-10-15T05:29:40;10.70;1.00
10566;DHT22;5331;48.148;16.326;2022-10-15T05:32:07;10.70;1.00
10566;DHT22;5331;48.148;16.326;2022-10-15T05:34:34;10.70;1.00
10566;DHT22;5331;48.148;16.326;2022-10-15T05:37:01;10.70;1.00
10566;DHT22;5331;48.148;16.326;2022-10-15T05:39:28;10.70;1.00
10566;DHT22;5331;48.148;16.326;2022-10-15T05:41:56;10.70;1.00
10566;DHT22;5331;48.148;16.326;2022-10-15T05:44:23;10.80;1.00
10566;DHT22;5331;48.148;16.326;2022-10-15T05:46:50;10.80;1.00
10566;DHT22;5331;48.148;16.326;2022-10-15T05:49:17;10.80;1.00
10566;DHT22;5331;48.148;16.326;2022-10-15T05:51:44;10.90;1.00
10566;DHT22;5331;48.148;16.326;2022-10-15T05:54:13;10.90;1.00
10566;DHT22;5331;48.148;16.326;2022-10-15T05:56:40;10.90;1.00
10566;DHT22;5331;48.148;16.326;2022-10-15T05:59:10;10.90;1.00
10566;DHT22;5331;48.148;16.326;2022-10-15T06:01:37;11.00;1.00
10566;DHT22;5331;48.148;16.326;2022-10-15T06:04:04;11.00;1.00
10566;DHT22;5331;48.148;16.326;2022-10-15T06:06:31;11.00;1.00
10566;DHT22;5331;48.148;16.326;2022-10-15T06:08:58;11.00;1.00
10566;DHT22;5331;48.148;16.326;2022-10-15T06:11:26;11.10;1.00
10566;DHT22;5331;48.148;16.326;2022-10-15T06:13:53;11.10;1.00
10566;DHT22;5331;48.148;16.326;2022-10-15T06:16:22;11.10;1.00
10566;DHT22;5331;48.148;16.326;2022-10-15T06:18:49;11.20;1.00
10566;DHT22;5331;48.148;16.326;2022-10-15T06:21:16;11.20;1.00
10566;DHT22;5331;48.148;16.326;2022-10-15T06:23:43;11.30;1.00
10566;DHT22;5331;48.148;16.326;2022-10-15T06:26:11;11.40;1.00
10566;DHT22;5331;48.148;16.326;2022-10-15T06:28:38;11.50;1.00
10566;DHT22;5331;48.148;16.326;2022-10-15T06:31:06;11.60;1.00
10566;DHT22;5331;48.148;16.326;2022-10-15T06:33:34;11.70;1.00
10566;DHT22;5331;48.148;16.326;2022-10-15T06:36:03;11.80;1.00
10566;DHT22;5331;48.148;16.326;2022-10-15T06:38:31;11.90;1.00
10566;DHT22;5331;48.148;16.326;2022-10-15T06:40:58;12.00;1.00
10566;DHT22;5331;48.148;16.326;2022-10-15T06:43:25;12.10;1.00
10566;DHT22;5331;48.148;16.326;2022-10-15T06:45:52;12.20;1.00
10566;DHT22;5331;48.148;16.326;2022-10-15T06:48:19;12.30;1.00
10566;DHT22;5331;48.148;16.326;2022-10-15T06:50:47;12.30;1.00
10566;DHT22;5331;48.148;16.326;2022-10-15T06:53:14;12.40;1.00
10566;DHT22;5331;48.148;16.326;2022-10-15T06:55:41;12.40;1.00
10566;DHT22;5331;48.148;16.326;2022-10-15T06:58:08;12.40;1.00
10566;DHT22;5331;48.148;16.326;2022-10-15T07:00:35;12.40;1.00
10566;DHT22;5331;48.148;16.326;2022-10-15T07:03:03;12.40;1.00
10566;DHT22;5331;48.148;16.326;2022-10-15T07:05:30;12.50;1.00
10566;DHT22;5331;48.148;16.326;2022-10-15T07:08:00;12.50;1.00
10566;DHT22;5331;48.148;16.326;2022-10-15T07:10:27;12.60;1.00
10566;DHT22;5331;48.148;16.326;2022-10-15T07:12:55;12.60;1.00
10566;DHT22;5331;48.148;16.326;2022-10-15T07:15:24;12.60;1.00
10566;DHT22;5331;48.148;16.326;2022-10-15T07:17:53;12.70;1.00
10566;DHT22;5331;48.148;16.326;2022-10-15T07:20:21;12.80;1.00
10566;DHT22;5331;48.148;16.326;2022-10-15T07:22:48;12.80;1.00
10566;DHT22;5331;48.148;16.326;2022-10-15T07:25:16;12.90;1.00
10566;DHT22;5331;48.148;16.326;2022-10-15T07:27:43;12.90;1.00
10566;DHT22;5331;48.148;16.326;2022-10-15T07:30:10;12.90;1.00
10566;DHT22;5331;48.148;16.326;2022-10-15T07:32:38;12.90;1.00
10566;DHT22;5331;48.148;16.326;2022-10-15T07:35:05;13.00;1.00
10566;DHT22;5331;48.148;16.326;2022-10-15T07:37:32;13.10;1.00
10566;DHT22;5331;48.148;16.326;2022-10-15T07:39:59;13.10;1.00
10566;DHT22;5331;48.148;16.326;2022-10-15T07:42:28;13.20;1.00
10566;DHT22;5331;48.148;16.326;2022-10-15T07:44:55;13.20;1.00
10566;DHT22;5331;48.148;16.326;2022-10-15T07:47:22;13.30;1.00
10566;DHT22;5331;48.148;16.326;2022-10-15T07:49:50;13.40;1.00
10566;DHT22;5331;48.148;16.326;2022-10-15T07:52:17;13.40;1.00
10566;DHT22;5331;48.148;16.326;2022-10-15T07:54:44;13.50;1.00
10566;DHT22;5331;48.148;16.326;2022-10-15T07:57:11;13.60;1.00
10566;DHT22;5331;48.148;16.326;2022-10-15T07:59:39;13.70;1.00
10566;DHT22;5331;48.148;16.326;2022-10-15T08:02:09;13.70;1.00
10566;DHT22;5331;48.148;16.326;2022-10-15T08:04:37;13.80;1.00
10566;DHT22;5331;48.148;16.326;2022-10-15T08:07:04;13.80;1.00
10566;DHT22;5331;48.148;16.326;2022-10-15T08:09:32;13.80;1.00
10566;DHT22;5331;48.148;16.326;2022-10-15T08:11:59;13.80;1.00
10566;DHT22;5331;48.148;16.326;2022-10-15T08:14:26;13.80;1.00
10566;DHT22;5331;48.148;16.326;2022-10-15T08:16:54;13.90;1.00
10566;DHT22;5331;48.148;16.326;2022-10-15T08:19:21;13.90;1.00
10566;DHT22;5331;48.148;16.326;2022-10-15T08:21:48;14.00;1.00
10566;DHT22;5331;48.148;16.326;2022-10-15T08:24:15;14.00;1.00
10566;DHT22;5331;48.148;16.326;2022-10-15T08:26:42;14.00;1.00
10566;DHT22;5331;48.148;16.326;2022-10-15T08:29:09;14.10;1.00
10566;DHT22;5331;48.148;16.326;2022-10-15T08:31:37;14.10;1.00
10566;DHT22;5331;48.148;16.326;2022-10-15T08:34:05;14.20;1.00
10566;DHT22;5331;48.148;16.326;2022-10-15T08:36:33;14.30;1.00
10566;DHT22;5331;48.148;16.326;2022-10-15T08:39:00;14.30;1.00
10566;DHT22;5331;48.148;16.326;2022-10-15T08:41:31;14.40;1.00
10566;DHT22;5331;48.148;16.326;2022-10-15T08:44:01;14.50;1.00
10566;DHT22;5331;48.148;16.326;2022-10-15T08:46:34;14.50;1.00
10566;DHT22;5331;48.148;16.326;2022-10-15T08:49:05;14.60;1.00
10566;DHT22;5331;48.148;16.326;2022-10-15T08:51:38;14.70;1.00
10566;DHT22;5331;48.148;16.326;2022-10-15T08:54:09;14.70;1.00
10566;DHT22;5331;48.148;16.326;2022-10-15T08:56:42;14.70;1.00
10566;DHT22;5331;48.148;16.326;2022-10-15T08:59:18;14.80;1.00
10566;DHT22;5331;48.148;16.326;2022-10-15T09:01:52;14.80;1.00
10566;DHT22;5331;48.148;16.326;2022-10-15T09:04:29;14.90;1.00
10566;DHT22;5331;48.148;16.326;2022-10-15T09:07:03;14.80;1.00
10566;DHT22;5331;48.148;16.326;2022-10-15T09:09:37;14.90;1.00
10566;DHT22;5331;48.148;16.326;2022-10-15T09:12:20;14.90;1.00
10566;DHT22;5331;48.148;16.326;2022-10-15T09:14:51;14.90;1.00
10566;DHT22;5331;48.148;16.326;2022-10-15T09:17:21;15.00;1.00
10566;DHT22;5331;48.148;16.326;2022-10-15T09:19:52;15.10;1.00
10566;DHT22;5331;48.148;16.326;2022-10-15T09:22:24;15.10;1.00
10566;DHT22;5331;48.148;16.326;2022-10-15T09:24:52;15.10;1.00
10566;DHT22;5331;48.148;16.326;2022-10-15T09:27:23;15.20;1.00
10566;DHT22;5331;48.148;16.326;2022-10-15T09:29:57;15.30;1.00
10566;DHT22;5331;48.148;16.326;2022-10-15T09:32:31;15.30;1.00
10566;DHT22;5331;48.148;16.326;2022-10-15T09:35:10;15.40;1.00
10566;DHT22;5331;48.148;16.326;2022-10-15T09:37:47;15.40;1.00
10566;DHT22;5331;48.148;16.326;2022-10-15T09:40:30;15.50;1.00
10566;DHT22;5331;48.148;16.326;2022-10-15T09:42:59;15.50;1.00
10566;DHT22;5331;48.148;16.326;2022-10-15T09:45:27;15.50;1.00
10566;DHT22;5331;48.148;16.326;2022-10-15T09:47:57;15.50;1.00
10566;DHT22;5331;48.148;16.326;2022-10-15T09:50:34;15.30;1.00
10566;DHT22;5331;48.148;16.326;2022-10-15T09:53:11;15.20;1.00
10566;DHT22;5331;48.148;16.326;2022-10-15T09:55:46;15.20;1.00
10566;DHT22;5331;48.148;16.326;2022-10-15T09:58:17;15.10;1.00
10566;DHT22;5331;48.148;16.326;2022-10-15T10:00:56;15.10;1.00
10566;DHT22;5331;48.148;16.326;2022-10-15T10:03:25;15.10;1.00
10566;DHT22;5331;48.148;16.326;2022-10-15T10:06:01;15.10;1.00
10566;DHT22;5331;48.148;16.326;2022-10-15T10:08:33;15.10;1.00
10566;DHT22;5331;48.148;16.326;2022-10-15T10:11:02;15.10;1.00
10566;DHT22;5331;48.148;16.326;2022-10-15T10:13:31;15.10;1.00
10566;DHT22;5331;48.148;16.326;2022-10-15T10:16:02;15.20;1.00
10566;DHT22;5331;48.148;16.326;2022-10-15T10:18:30;15.20;1.00
10566;DHT22;5331;48.148;16.326;2022-10-15T10:21:01;15.20;1.00
10566;DHT22;5331;48.148;16.326;2022-10-15T10:23:30;15.30;1.00
10566;DHT22;5331;48.148;16.326;2022-10-15T10:26:00;15.30;1.00
10566;DHT22;5331;48.148;16.326;2022-10-15T10:28:32;15.30;1.00
10566;DHT22;5331;48.148;16.326;2022-10-15T10:31:02;15.30;1.00
10566;DHT22;5331;48.148;16.326;2022-10-15T10:33:34;15.40;1.00
10566;DHT22;5331;48.148;16.326;2022-10-15T10:36:03;15.40;1.00
10566;DHT22;5331;48.148;16.326;2022-10-15T10:38:33;15.50;1.00
10566;DHT22;5331;48.148;16.326;2022-10-15T10:41:02;15.50;1.00
10566;DHT22;5331;48.148;16.326;2022-10-15T10:43:33;15.50;1.00
10566;DHT22;5331;48.148;16.326;2022-10-15T10:46:03;15.50;1.00
10566;DHT22;5331;48.148;16.326;2022-10-15T10:48:38;15.60;1.00
10566;DHT22;5331;48.148;16.326;2022-10-15T10:51:15;15.50;1.00
10566;DHT22;5331;48.148;16.326;2022-10-15T10:53:48;15.60;1.00
10566;DHT22;5331;48.148;16.326;2022-10-15T10:56:19;15.60;1.00
10566;DHT22;5331;48.148;16.326;2022-10-15T10:58:50;15.70;1.00
10566;DHT22;5331;48.148;16.326;2022-10-15T11:01:18;15.70;1.00
10566;DHT22;5331;48.148;16.326;2022-10-15T11:03:45;15.60;1.00
10566;DHT22;5331;48.148;16.326;2022-10-15T11:06:48;15.60;1.00
10566;DHT22;5331;48.148;16.326;2022-10-15T11:09:28;15.50;1.00
10566;DHT22;5331;48.148;16.326;2022-10-15T11:12:07;15.20;1.00
10566;DHT22;5331;48.148;16.326;2022-10-15T11:14:44;15.10;1.00
10566;DHT22;5331;48.148;16.326;2022-10-15T11:17:18;15.00;1.00
10566;DHT22;5331;48.148;16.326;2022-10-15T11:19:54;14.90;1.00
10566;DHT22;5331;48.148;16.326;2022-10-15T11:22:34;14.80;1.00
10566;DHT22;5331;48.148;16.326;2022-10-15T11:25:11;14.80;1.00
10566;DHT22;5331;48.148;16.326;2022-10-15T11:27:49;14.80;1.00
10566;DHT22;5331;48.148;16.326;2022-10-15T11:30:29;14.80;1.00
10566;DHT22;5331;48.148;16.326;2022-10-15T11:33:11;14.80;1.00
10566;DHT22;5331;48.148;16.326;2022-10-15T11:35:45;14.70;1.00
10566;DHT22;5331;48.148;16.326;2022-10-15T11:38:24;14.60;1.00
10566;DHT22;5331;48.148;16.326;2022-10-15T11:44:17;14.60;1.00
10566;DHT22;5331;48.148;16.326;2022-10-15T11:46:50;14.60;1.00
10566;DHT22;5331;48.148;16.326;2022-10-15T11:49:31;14.60;1.00
10566;DHT22;5331;48.148;16.326;2022-10-15T11:52:15;14.60;1.00
10566;DHT22;5331;48.148;16.326;2022-10-15T11:54:59;14.60;1.00
10566;DHT22;5331;48.148;16.326;2022-10-15T11:57:31;14.60;1.00
10566;DHT22;5331;48.148;16.326;2022-10-15T12:00:00;14.50;1.00
10566;DHT22;5331;48.148;16.326;2022-10-15T12:02:32;14.50;1.00
10566;DHT22;5331;48.148;16.326;2022-10-15T12:05:06;14.40;1.00
10566;DHT22;5331;48.148;16.326;2022-10-15T12:07:38;14.40;1.00
10566;DHT22;5331;48.148;16.326;2022-10-15T12:10:27;14.50;1.00
10566;DHT22;5331;48.148;16.326;2022-10-15T12:13:02;14.50;1.00
10566;DHT22;5331;48.148;16.326;2022-10-15T12:15:38;14.50;1.00
10566;DHT22;5331;48.148;16.326;2022-10-15T12:18:13;14.50;1.00
10566;DHT22;5331;48.148;16.326;2022-10-15T12:20:44;14.60;1.00
10566;DHT22;5331;48.148;16.326;2022-10-15T12:23:26;14.50;1.00
10566;DHT22;5331;48.148;16.326;2022-10-15T12:26:26;14.50;1.00
10566;DHT22;5331;48.148;16.326;2022-10-15T12:28:55;14.60;1.00
10566;DHT22;5331;48.148;16.326;2022-10-15T12:31:23;14.60;1.00
10566;DHT22;5331;48.148;16.326;2022-10-15T12:33:52;14.60;1.00
10566;DHT22;5331;48.148;16.326;2022-10-15T12:36:23;14.60;1.00
10566;DHT22;5331;48.148;16.326;2022-10-15T12:38:56;14.60;1.00
10566;DHT22;5331;48.148;16.326;2022-10-15T12:41:37;14.60;1.00
10566;DHT22;5331;48.148;16.326;2022-10-15T12:44:07;14.60;1.00
10566;DHT22;5331;48.148;16.326;2022-10-15T12:46:36;14.60;1.00
10566;DHT22;5331;48.148;16.326;2022-10-15T12:49:45;14.70;1.00
10566;DHT22;5331;48.148;16.326;2022-10-15T12:52:51;14.60;1.00
10566;DHT22;5331;48.148;16.326;2022-10-15T12:55:24;14.60;1.00
10566;DHT22;5331;48.148;16.326;2022-10-15T12:57:59;14.60;1.00
10566;DHT22;5331;48.148;16.326;2022-10-15T13:00:33;14.60;1.00
10566;DHT22;5331;48.148;16.326;2022-10-15T13:08:59;14.60;1.00
10566;DHT22;5331;48.148;16.326;2022-10-15T13:11:30;14.70;1.00
10566;DHT22;5331;48.148;16.326;2022-10-15T13:14:01;14.70;1.00
10566;DHT22;5331;48.148;16.326;2022-10-15T13:16:29;14.70;1.00
10566;DHT22;5331;48.148;16.326;2022-10-15T13:18:56;14.70;1.00
10566;DHT22;5331;48.148;16.326;2022-10-15T13:21:45;14.70;1.00
10566;DHT22;5331;48.148;16.326;2022-10-15T13:24:18;14.60;1.00
10566;DHT22;5331;48.148;16.326;2022-10-15T13:26:46;14.70;1.00
10566;DHT22;5331;48.148;16.326;2022-10-15T13:29:17;14.70;1.00
10566;DHT22;5331;48.148;16.326;2022-10-15T13:31:45;14.70;1.00
10566;DHT22;5331;48.148;16.326;2022-10-15T13:34:20;14.70;1.00
10566;DHT22;5331;48.148;16.326;2022-10-15T13:36:49;14.70;1.00
10566;DHT22;5331;48.148;16.326;2022-10-15T13:39:25;14.70;1.00
10566;DHT22;5331;48.148;16.326;2022-10-15T13:42:02;14.70;1.00
10566;DHT22;5331;48.148;16.326;2022-10-15T13:44:32;14.70;1.00
10566;DHT22;5331;48.148;16.326;2022-10-15T13:47:00;14.70;1.00
10566;DHT22;5331;48.148;16.326;2022-10-15T13:49:27;14.70;1.00
10566;DHT22;5331;48.148;16.326;2022-10-15T13:51:54;14.70;1.00
10566;DHT22;5331;48.148;16.326;2022-10-15T13:54:23;14.70;1.00
10566;DHT22;5331;48.148;16.326;2022-10-15T13:56:53;14.60;1.00
10566;DHT22;5331;48.148;16.326;2022-10-15T13:59:23;14.60;1.00
10566;DHT22;5331;48.148;16.326;2022-10-15T14:01:53;14.60;1.00
10566;DHT22;5331;48.148;16.326;2022-10-15T14:04:26;14.60;1.00
10566;DHT22;5331;48.148;16.326;2022-10-15T14:07:00;14.60;1.00
10566;DHT22;5331;48.148;16.326;2022-10-15T14:09:32;14.60;1.00
10566;DHT22;5331;48.148;16.326;2022-10-15T14:12:00;14.60;1.00
10566;DHT22;5331;48.148;16.326;2022-10-15T14:14:30;14.60;1.00
10566;DHT22;5331;48.148;16.326;2022-10-15T14:17:00;14.60;1.00
10566;DHT22;5331;48.148;16.326;2022-10-15T14:19:28;14.50;1.00
10566;DHT22;5331;48.148;16.326;2022-10-15T14:21:57;14.60;1.00
10566;DHT22;5331;48.148;16.326;2022-10-15T14:24:29;14.60;1.00
10566;DHT22;5331;48.148;16.326;2022-10-15T14:27:02;14.60;1.00
10566;DHT22;5331;48.148;16.326;2022-10-15T14:29:36;14.60;1.00
10566;DHT22;5331;48.148;16.326;2022-10-15T14:32:22;14.60;1.00
10566;DHT22;5331;48.148;16.326;2022-10-15T14:34:50;14.60;1.00
10566;DHT22;5331;48.148;16.326;2022-10-15T14:37:36;14.70;1.00
10566;DHT22;5331;48.148;16.326;2022-10-15T14:40:17;14.60;1.00
10566;DHT22;5331;48.148;16.326;2022-10-15T14:42:45;14.70;1.00
10566;DHT22;5331;48.148;16.326;2022-10-15T14:45:18;14.60;1.00
10566;DHT22;5331;48.148;16.326;2022-10-15T14:47:50;14.60;1.00
10566;DHT22;5331;48.148;16.326;2022-10-15T14:50:17;14.60;1.00
10566;DHT22;5331;48.148;16.326;2022-10-15T14:52:46;14.50;1.00
10566;DHT22;5331;48.148;16.326;2022-10-15T14:55:24;14.50;1.00
10566;DHT22;5331;48.148;16.326;2022-10-15T14:57:53;14.40;1.00
10566;DHT22;5331;48.148;16.326;2022-10-15T15:00:24;14.40;1.00
10566;DHT22;5331;48.148;16.326;2022-10-15T15:02:53;14.40;1.00
10566;DHT22;5331;48.148;16.326;2022-10-15T15:05:24;14.40;1.00
10566;DHT22;5331;48.148;16.326;2022-10-15T15:07:52;14.40;1.00
10566;DHT22;5331;48.148;16.326;2022-10-15T15:10:21;14.40;1.00
10566;DHT22;5331;48.148;16.326;2022-10-15T15:12:50;14.30;1.00
10566;DHT22;5331;48.148;16.326;2022-10-15T15:15:19;14.30;1.00
10566;DHT22;5331;48.148;16.326;2022-10-15T15:17:47;14.30;1.00
10566;DHT22;5331;48.148;16.326;2022-10-15T15:20:16;14.30;1.00
10566;DHT22;5331;48.148;16.326;2022-10-15T15:22:46;14.30;1.00
10566;DHT22;5331;48.148;16.326;2022-10-15T15:25:16;14.30;1.00
10566;DHT22;5331;48.148;16.326;2022-10-15T15:27:43;14.20;1.00
10566;DHT22;5331;48.148;16.326;2022-10-15T15:30:14;14.20;1.00
10566;DHT22;5331;48.148;16.326;2022-10-15T15:32:41;14.20;1.00
10566;DHT22;5331;48.148;16.326;2022-10-15T15:35:20;14.20;1.00
10566;DHT22;5331;48.148;16.326;2022-10-15T15:37:47;14.20;1.00
10566;DHT22;5331;48.148;16.326;2022-10-15T15:40:14;14.20;1.00
10566;DHT22;5331;48.148;16.326;2022-10-15T15:42:42;14.20;1.00
10566;DHT22;5331;48.148;16.326;2022-10-15T15:45:16;14.20;1.00
10566;DHT22;5331;48.148;16.326;2022-10-15T15:47:44;14.20;1.00
10566;DHT22;5331;48.148;16.326;2022-10-15T15:50:11;14.20;1.00
10566;DHT22;5331;48.148;16.326;2022-10-15T15:52:40;14.20;1.00
10566;DHT22;5331;48.148;16.326;2022-10-15T15:55:08;14.20;1.00
10566;DHT22;5331;48.148;16.326;2022-10-15T15:57:35;14.20;1.00
10566;DHT22;5331;48.148;16.326;2022-10-15T16:00:03;14.20;1.00
10566;DHT22;5331;48.148;16.326;2022-10-15T16:02:31;14.20;1.00
10566;DHT22;5331;48.148;16.326;2022-10-15T16:04:58;14.20;1.00
10566;DHT22;5331;48.148;16.326;2022-10-15T16:07:28;14.20;1.00
10566;DHT22;5331;48.148;16.326;2022-10-15T16:09:56;14.30;1.00
10566;DHT22;5331;48.148;16.326;2022-10-15T16:12:23;14.20;1.00
10566;DHT22;5331;48.148;16.326;2022-10-15T16:14:50;14.20;1.00
10566;DHT22;5331;48.148;16.326;2022-10-15T16:17:17;14.20;1.00
10566;DHT22;5331;48.148;16.326;2022-10-15T16:19:44;14.30;1.00